Time;durP1;ratioP1;P1;durP2;ratioP2;P2;SDS_P1;SDS_P2;PMS_P1;PMS_P2;Temp;Humidity;BMP_temperature;BMP_pressure;BME280_temperature;BME280_humidity;BME280_pressure;Samples;Min_cycle;Max_cycle;Signal;HPM_P1;HPM_P2
2021/12/08 00:02:17;;;;;;;7.00;3.42;;;;;;;;;;5056656;28;20324;-88
2021/12/08 00:04:43;;;;;;;5.28;2.97;;;;;;;;;;5056838;28;20493;-90
2021/12/08 00:07:09;;;;;;;4.35;2.53;;;;;;;;;;5056812;28;20131;-89
2021/12/08 00:14:53;;;;;;;7.13;4.00;;;;;;;;;;5090204;28;20086;-90
2021/12/08 00:17:19;;;;;;;6.10;2.95;;;;;;;;;;5056376;28;20063;-88
2021/12/08 00:19:45;;;;;;;9.27;2.92;;;;;;;;;;5056936;28;20083;-88
2021/12/08 00:22:11;;;;;;;2.95;1.63;;;;;;;;;;5056657;28;20052;-88
2021/12/08 00:24:37;;;;;;;10.18;3.05;;;;;;;;;;5056661;28;20094;-89
2021/12/08 00:27:03;;;;;;;5.15;3.22;;;;;;;;;;5056724;28;20072;-90
2021/12/08 00:29:29;;;;;;;7.95;3.38;;;;;;;;;;5056479;28;20059;-88
2021/12/08 00:31:56;;;;;;;5.93;2.72;;;;;;;;;;5056855;28;20057;-87
2021/12/08 00:34:23;;;;;;;9.93;3.22;;;;;;;;;;5090594;28;20079;-88
2021/12/08 00:36:52;;;;;;;3.55;2.35;;;;;;;;;;5056694;28;20053;-91
2021/12/08 00:39:18;;;;;;;6.63;3.65;;;;;;;;;;5057038;28;20068;-90
2021/12/08 00:41:44;;;;;;;5.20;3.33;;;;;;;;;;5073304;28;20060;-89
2021/12/08 00:44:10;;;;;;;5.45;2.83;;;;;;;;;;5057486;28;20049;-90
2021/12/08 00:46:37;;;;;;;5.50;3.15;;;;;;;;;;5072367;28;20053;-86
2021/12/08 00:49:04;;;;;;;4.88;3.05;;;;;;;;;;5055693;28;20060;-87
2021/12/08 00:51:30;;;;;;;9.50;3.22;;;;;;;;;;5055897;28;20571;-87
2021/12/08 00:53:56;;;;;;;3.95;2.83;;;;;;;;;;5056035;28;20144;-87
2021/12/08 00:56:23;;;;;;;4.68;2.58;;;;;;;;;;5072382;28;20051;-87
2021/12/08 00:58:49;;;;;;;4.15;2.78;;;;;;;;;;5056004;28;20053;-87
2021/12/08 01:01:15;;;;;;;7.95;4.10;;;;;;;;;;5072362;28;20506;-87
2021/12/08 01:03:42;;;;;;;6.68;3.47;;;;;;;;;;5072440;28;20048;-86
2021/12/08 01:06:08;;;;;;;4.70;3.20;;;;;;;;;;5071962;28;20059;-86
2021/12/08 01:08:34;;;;;;;3.17;2.85;;;;;;;;;;5055798;28;20041;-86
2021/12/08 01:11:03;;;;;;;5.90;2.78;;;;;;;;;;5055868;28;20416;-87
2021/12/08 01:13:29;;;;;;;4.78;3.13;;;;;;;;;;5055866;28;20493;-86
2021/12/08 01:15:57;;;;;;;10.18;4.90;;;;;;;;;;5073821;28;20091;-86
2021/12/08 01:18:24;;;;;;;5.53;3.00;;;;;;;;;;5076433;28;20087;-86
2021/12/08 01:20:51;;;;;;;4.47;3.17;;;;;;;;;;5076319;28;20059;-87
2021/12/08 01:23:18;;;;;;;4.55;3.10;;;;;;;;;;5059397;28;20044;-87
2021/12/08 01:25:44;;;;;;;7.45;3.63;;;;;;;;;;5076128;28;20084;-86
2021/12/08 01:28:10;;;;;;;8.68;4.07;;;;;;;;;;5058812;28;20094;-86
2021/12/08 01:30:37;;;;;;;4.15;2.95;;;;;;;;;;5059074;28;20048;-86
2021/12/08 01:33:03;;;;;;;7.60;3.25;;;;;;;;;;5059169;28;20048;-86
2021/12/08 01:35:30;;;;;;;4.90;3.17;;;;;;;;;;5058978;28;20088;-87
2021/12/08 01:37:56;;;;;;;7.82;3.90;;;;;;;;;;5059294;28;20110;-86
2021/12/08 01:40:23;;;;;;;5.38;3.33;;;;;;;;;;5059077;28;20052;-87
2021/12/08 01:42:53;;;;;;;8.05;3.78;;;;;;;;;;5059374;28;20052;-86
2021/12/08 01:48:08;;;;;;;7.95;3.72;;;3.50;99.90;;;;;;5092294;28;20524;-87
2021/12/08 01:50:35;;;;;;;8.50;4.20;;;;;;;;;;5058794;28;20053;-86
2021/12/08 01:53:01;;;;;;;5.50;4.40;;;;;;;;;;5059554;28;20098;-91
2021/12/08 01:55:27;;;;;;;5.68;4.45;;;;;;;;;;5059212;28;20048;-90
2021/12/08 01:57:53;;;;;;;8.60;3.58;;;;;;;;;;5059030;28;20056;-90
2021/12/08 02:00:40;;;;;;;11.98;5.07;;;;;;;;;;5076254;28;20143;-90
2021/12/08 02:03:07;;;;;;;5.32;3.95;;;;;;;;;;5059379;28;20056;-90
2021/12/08 02:05:33;;;;;;;7.78;4.20;;;;;;;;;;5076752;28;20052;-89
2021/12/08 02:07:59;;;;;;;5.03;3.25;;;;;;;;;;5060117;28;20106;-90
2021/12/08 02:10:26;;;;;;;11.25;3.60;;;;;;;;;;5076764;28;20068;-90
2021/12/08 02:12:52;;;;;;;5.85;3.70;;;;;;;;;;5059417;28;20132;-90
2021/12/08 02:15:18;;;;;;;3.78;2.95;;;;;;;;;;5079285;28;20044;-90
2021/12/08 02:17:50;;;;;;;9.02;3.70;;;;;;;;;;5079241;28;20390;-90
2021/12/08 02:20:18;;;;;;;8.23;3.85;;;;;;;;;;5064056;28;20082;-90
2021/12/08 02:22:44;;;;;;;10.75;4.93;;;;;;;;;;5064359;28;20052;-91
2021/12/08 02:25:13;;;;;;;6.53;3.50;;;;;;;;;;5059619;28;20060;-90
2021/12/08 02:27:39;;;;;;;6.93;3.10;;;;;;;;;;5058999;28;20044;-91
2021/12/08 02:30:16;;;;;;;5.65;3.88;;;;;;;;;;5060397;28;20089;-89
2021/12/08 02:49:06;;;;;;;4.47;3.97;;;;;;;;;;5091424;28;20513;-88
2021/12/08 02:51:33;;;;;;;3.78;3.38;;;;;;;;;;5057593;28;20059;-87
2021/12/08 02:53:59;;;;;;;6.70;5.82;;;;;;;;;;5057967;28;20048;-87
2021/12/08 02:56:26;;;;;;;5.50;4.07;;;;;;;;;;5058053;28;20524;-87
2021/12/08 02:58:52;;;;;;;6.57;3.95;;;;;;;;;;5058089;28;20040;-87
2021/12/08 03:01:18;;;;;;;7.93;4.00;;;;;;;;;;5057721;28;20517;-87
2021/12/08 03:03:44;;;;;;;6.72;3.78;;;;;;;;;;5058064;28;20056;-87
2021/12/08 03:06:11;;;;;;;5.13;4.00;;;;;;;;;;5074561;28;20171;-90
2021/12/08 03:08:37;;;;;;;4.30;3.80;;;;;;;;;;5057489;28;20052;-87
2021/12/08 03:11:04;;;;;;;7.18;4.32;;;;;;;;;;5057965;28;20141;-87
2021/12/08 03:13:31;;;;;;;9.57;5.10;;;;;;;;;;5075013;28;20056;-87
2021/12/08 03:15:58;;;;;;;8.20;5.03;;;;;;;;;;5058264;28;20136;-87
2021/12/08 03:18:31;;;;;;;6.70;4.82;;;;;;;;;;5075016;28;20049;-87
2021/12/08 03:20:57;;;;;;;8.52;5.05;;;;;;;;;;5058131;28;20056;-86
2021/12/08 03:23:30;;;;;;;6.32;5.05;;;;;;;;;;5074892;28;20048;-88
2021/12/08 03:25:58;;;;;;;3.47;3.05;;;;;;;;;;5057740;28;20131;-89
2021/12/08 03:28:30;;;;;;;6.97;5.10;;;;;;;;;;5091131;28;20049;-89
2021/12/08 03:33:22;;;;;;;7.13;4.65;;;;;;;;;;5091092;28;20083;-89
2021/12/08 03:35:49;;;;;;;7.00;6.30;;;;;;;;;;5074806;28;20493;-87
2021/12/08 03:38:16;;;;;;;13.05;5.40;;;;;;;;;;5056759;28;20195;-88
2021/12/08 03:40:42;;;;;;;7.88;5.85;;;;;;;;;;5074962;28;20044;-90
2021/12/08 03:43:08;;;;;;;9.63;6.60;;;;;;;;;;5057067;28;20095;-88
2021/12/08 03:45:43;;;;;;;12.45;6.00;;;;;;;;;;5075219;28;20424;-90
2021/12/08 03:48:10;;;;;;;8.88;6.65;;;;;;;;;;5090464;28;20541;-88
2021/12/08 03:50:37;;;;;;;10.25;6.53;;;;;;;;;;5056457;28;20063;-90
2021/12/08 03:53:04;;;;;;;6.35;5.75;;;;;;;;;;5073196;28;20061;-88
2021/12/08 03:55:31;;;;;;;7.35;6.10;;;;;;;;;;5073593;28;20057;-88
2021/12/08 03:57:57;;;;;;;7.35;6.40;;;;;;;;;;5057422;28;20056;-90
2021/12/08 04:00:24;;;;;;;11.32;8.13;;;;;;;;;;5056950;28;20045;-89
2021/12/08 04:02:50;;;;;;;7.70;5.30;;;;;;;;;;5057637;28;20052;-87
2021/12/08 04:05:19;;;;;;;9.38;6.20;;;;;;;;;;5090378;28;20566;-90
2021/12/08 04:07:51;;;;;;;9.30;7.32;;;;;;;;;;5057282;28;20499;-89
2021/12/08 04:10:19;;;;;;;10.10;8.50;;;;;;;;;;5090878;28;20053;-90
2021/12/08 04:12:51;;;;;;;15.93;7.68;;;;;;;;;;5056681;28;20060;-89
2021/12/08 04:15:18;;;;;;;15.00;8.68;;;;;;;;;;5057178;28;20401;-87
2021/12/08 04:17:47;;;;;;;12.35;7.40;;;;;;;;;;5057015;28;20055;-88
2021/12/08 04:20:19;;;;;;;14.13;8.07;;;;;;;;;;5056891;28;20054;-88
2021/12/08 04:22:46;;;;;;;11.13;7.25;;;;;;;;;;5056550;28;20402;-88
2021/12/08 04:25:15;;;;;;;13.85;8.73;;;;;;;;;;5073356;28;20045;-88
2021/12/08 04:27:42;;;;;;;11.07;7.00;;;;;;;;;;5073105;28;20570;-90
2021/12/08 04:30:10;;;;;;;13.18;8.20;;;;;;;;;;5056599;28;20052;-90
2021/12/08 04:32:37;;;;;;;9.55;8.60;;;;;;;;;;5057644;28;20377;-88
2021/12/08 04:35:04;;;;;;;13.88;8.98;;;;;;;;;;5056342;28;20415;-87
2021/12/08 04:37:34;;;;;;;16.00;9.90;;;;;;;;;;5056220;28;20088;-90
2021/12/08 04:40:17;;;;;;;13.82;7.30;;;;;;;;;;5056025;28;20110;-87
2021/12/08 04:45:42;;;;;;;12.55;9.30;;;;;;;;;;5090351;28;20060;-88
2021/12/08 04:48:46;;;;;;;10.38;8.32;;;;;;;;;;5056290;28;20106;-89
2021/12/08 05:03:01;;;;;;;12.35;9.07;;;;;;;;;;5094327;28;20040;-88
2021/12/08 05:05:23;;;;;;;10.85;8.95;;;;;;;;;;5076298;28;20049;-89
2021/12/08 05:07:53;;;;;;;9.27;8.27;;;;;;;;;;5060062;28;20044;-88
2021/12/08 05:10:22;;;;;;;17.80;8.70;;;;;;;;;;5093545;28;20094;-89
2021/12/08 05:12:49;;;;;;;13.23;7.70;;;;;;;;;;5076678;28;20053;-89
2021/12/08 05:15:22;;;;;;;12.10;7.95;;;;;;;;;;5059831;28;20044;-89
2021/12/08 05:17:52;;;;;;;13.45;9.20;;;;;;;;;;5076621;28;20053;-88
2021/12/08 05:20:18;;;;;;;9.82;7.90;;;;;;;;;;5059965;28;20044;-89
2021/12/08 05:22:48;;;;;;;10.23;8.30;;;;;;;;;;5075974;28;20085;-89
2021/12/08 05:25:16;;;;;;;12.10;8.55;;;;;;;;;;5076282;28;20049;-89
2021/12/08 05:27:46;;;;;;;18.42;8.45;;;;;;;;;;5076486;28;20052;-89
2021/12/08 05:30:14;;;;;;;12.43;8.23;;;;;;;;;;5059693;28;20052;-88
2021/12/08 05:32:40;;;;;;;14.40;7.65;;;;;;;;;;5060669;28;20061;-89
2021/12/08 05:35:08;;;;;;;15.32;7.60;;;;;;;;;;5059438;28;20155;-89
2021/12/08 05:37:34;;;;;;;15.30;9.00;;;;;;;;;;5076257;28;20477;-89
2021/12/08 05:40:00;;;;;;;9.63;7.75;;;;;;;;;;5059410;28;20127;-88
2021/12/08 05:42:29;;;;;;;10.07;7.18;;;;;;;;;;5059957;28;20049;-89
2021/12/08 05:44:56;;;;;;;8.98;7.22;;;;;;;;;;5059353;28;20105;-90
2021/12/08 05:47:24;;;;;;;8.70;7.43;;;;;;;;;;5060970;28;20052;-88
2021/12/08 05:49:50;;;;;;;8.77;7.03;;;;;;;;;;5062718;28;20109;-89
2021/12/08 05:52:19;;;;;;;12.68;7.38;;;;;;;;;;5095985;28;20087;-89
2021/12/08 05:54:47;;;;;;;11.57;7.72;;;;;;;;;;5078855;28;20112;-89
2021/12/08 05:57:19;;;;;;;11.82;7.15;;;;;;;;;;5095963;28;20055;-89
2021/12/08 05:59:46;;;;;;;10.13;7.65;;;;;;;;;;5096021;28;20058;-89
2021/12/08 06:02:15;;;;;;;13.88;6.75;;;;;;;;;;5061947;28;20048;-88
2021/12/08 06:04:42;;;;;;;10.30;7.10;;;;;;;;;;5062546;28;20048;-90
2021/12/08 06:07:09;;;;;;;8.45;7.32;;;;;;;;;;5062172;28;20063;-89
2021/12/08 06:09:35;;;;;;;12.80;6.80;;;;;;;;;;5062593;28;20051;-90
2021/12/08 06:12:02;;;;;;;12.18;6.88;;;;;;;;;;5095607;28;20060;-89
2021/12/08 06:14:32;;;;;;;9.70;6.95;;;;;;;;;;5095608;28;20050;-89
2021/12/08 06:17:06;;;;;;;10.60;6.15;;;;;;;;;;5062185;28;20059;-89
2021/12/08 06:19:32;;;;;;;12.65;7.55;;;;;;;;;;5062952;28;20182;-90
2021/12/08 06:21:59;;;;;;;10.45;7.10;;;;;;;;;;5063294;28;20087;-90
2021/12/08 06:24:25;;;;;;;11.60;7.03;;;;;;;;;;5096331;28;20518;-91
2021/12/08 06:26:51;;;;;;;8.57;6.25;;;;;;;;;;5063554;28;20048;-91
2021/12/08 06:29:18;;;;;;;13.95;7.70;;;;;;;;;;5062519;28;20086;-90
2021/12/08 06:31:47;;;;;;;20.95;7.22;;;;;;;;;;5098348;28;20052;-90
2021/12/08 06:34:14;;;;;;;16.70;6.68;;;;;;;;;;5097071;28;20455;-89
2021/12/08 06:36:43;;;;;;;11.18;7.07;;;;;;;;;;5099900;28;20138;-89
2021/12/08 06:39:17;;;;;;;18.13;6.88;;;;;;;;;;5067075;28;20400;-90
2021/12/08 06:41:45;;;;;;;10.50;6.55;;;;;;;;;;5066572;28;20059;-90
2021/12/08 06:44:13;;;;;;;12.60;6.50;;;;;;;;;;5067816;28;20067;-89
2021/12/08 06:46:41;;;;;;;9.98;6.43;;;;;;;;;;5067993;28;20117;-88
2021/12/08 06:49:08;;;;;;;8.40;6.15;;;;;;;;;;5097915;28;20058;-87
2021/12/08 06:51:37;;;;;;;9.23;6.63;;;;;;;;;;5082200;28;20106;-87
2021/12/08 06:54:06;;;;;;;20.65;6.35;;;;;;;;;;5099477;28;20109;-88
2021/12/08 06:56:39;;;;;;;12.70;5.65;;;;;;;;;;5061748;28;20032;-87
2021/12/08 06:59:08;;;;;;;11.23;5.25;;;;;;;;;;5096422;28;20052;-88
2021/12/08 07:06:59;;;;;;;12.60;6.38;;;;;;;;;;5094864;28;20040;-87
2021/12/08 07:09:48;;;;;;;8.45;5.53;;;;;;;;;;5094834;28;20056;-88
2021/12/08 07:12:19;;;;;;;7.68;6.25;;;;;;;;;;5094604;28;20048;-88
2021/12/08 07:14:53;;;;;;;10.65;6.32;;;;;;;;;;5093625;28;20098;-88
2021/12/08 07:17:22;;;;;;;;;;;5.10;99.90;;;;;;5061851;28;20058;-87
2021/12/08 07:20:02;;;;;;;8.60;5.75;;;;;;;;;;5094090;28;19970;-89
2021/12/08 07:22:29;;;;;;;9.50;5.30;;;;;;;;;;5077823;28;20083;-88
2021/12/08 07:24:56;;;;;;;8.45;5.18;;;;;;;;;;5060870;28;20451;-89
2021/12/08 07:27:25;;;;;;;7.18;5.70;;;;;;;;;;5094003;28;20100;-89
2021/12/08 07:29:52;;;;;;;8.88;5.90;;;;;;;;;;5060787;28;20169;-88
2021/12/08 07:32:25;;;;;;;11.80;6.20;;;;;;;;;;5060898;28;20052;-87
2021/12/08 07:34:52;;;;;;;11.38;5.95;;;;;;;;;;5060423;28;20143;-87
2021/12/08 07:37:21;;;;;;;11.93;6.45;;;;;;;;;;5061029;28;20054;-89
2021/12/08 07:39:49;;;;;;;9.18;5.35;;;;;;;;;;5060591;28;20044;-86
2021/12/08 07:42:20;;;;;;;8.43;5.80;;;;;;;;;;5059827;28;20052;-86
2021/12/08 07:44:48;;;;;;;11.65;6.93;;;;;;;;;;5059871;28;20051;-86
2021/12/08 07:47:15;;;;;;;6.65;4.38;;;;;;;;;;5093418;28;20051;-87
2021/12/08 07:49:46;;;;;;;10.27;4.68;;;;;;;;;;5061626;28;20095;-88
2021/12/08 07:52:23;;;;;;;5.97;4.75;;;;;;;;;;5078269;28;20056;-88
2021/12/08 07:54:50;;;;;;;8.27;4.90;;;;;;;;;;5094790;28;20059;-89
2021/12/08 07:57:21;;;;;;;5.80;3.97;;;;;;;;;;5059568;28;20134;-87
2021/12/08 07:59:49;;;;;;;6.90;4.72;;;;;;;;;;5060085;28;20040;-87
2021/12/08 08:02:16;;;;;;;5.32;3.10;;;;;;;;;;5060453;28;20044;-88
2021/12/08 08:04:44;;;;;;;5.75;4.15;;;;;;;;;;5061069;28;20062;-87
2021/12/08 08:07:11;;;;;;;4.38;2.97;;;;;;;;;;5060499;28;20500;-88
2021/12/08 08:09:40;;;;;;;9.95;3.75;;;;;;;;;;5060480;28;20055;-91
2021/12/08 08:12:08;;;;;;;7.97;3.95;;;;;;;;;;5094847;28;20056;-90
2021/12/08 08:14:39;;;;;;;7.28;3.78;;;;;;;;;;5060519;28;20044;-89
2021/12/08 08:17:10;;;;;;;12.10;3.28;;;;;;;;;;5060200;28;20597;-87
2021/12/08 08:19:43;;;;;;;6.40;3.67;;;;;;;;;;5060129;28;20056;-87
2021/12/08 08:22:10;;;;;;;6.25;3.53;;;;;;;;;;5093217;28;20055;-86
2021/12/08 08:24:37;;;;;;;5.90;3.35;;;;;;;;;;5059612;28;20048;-89
2021/12/08 08:27:04;;;;;;;10.75;3.45;;;;;;;;;;5059280;28;20052;-87
2021/12/08 08:29:31;;;;;;;5.55;2.80;;;;;;;;;;5060167;28;20392;-86
2021/12/08 08:31:59;;;;;;;4.47;2.72;;;;;;;;;;5092912;28;20130;-87
2021/12/08 08:34:27;;;;;;;6.88;3.20;;;;;;;;;;5059627;28;20052;-90
2021/12/08 08:36:54;;;;;;;5.38;2.95;;;;;;;;;;5093366;28;20565;-87
2021/12/08 08:39:22;;;;;;;3.72;2.92;;;;;;;;;;5093416;28;20052;-88
2021/12/08 08:41:53;;;;;;;6.65;2.75;;;;;;;;;;5092481;28;20153;-87
2021/12/08 08:44:22;;;;;;;6.70;2.67;;;;;;;;;;5093846;28;20052;-88
2021/12/08 08:46:48;;;;;;;4.65;2.33;;;;;;;;;;5093082;28;20083;-90
2021/12/08 08:49:20;;;;;;;6.63;2.80;;;;;;;;;;5094273;28;20060;-89
2021/12/08 08:51:59;;;;;;;8.43;2.67;;;;;;;;;;5093392;28;20056;-90
2021/12/08 08:54:27;;;;;;;4.75;2.60;;;;;;;;;;5076541;28;20495;-88
2021/12/08 08:57:14;;;;;;;6.75;2.92;;;;;;;;;;5094598;28;20142;-88
2021/12/08 08:59:45;;;;;;;7.53;2.90;;;;;;;;;;5076562;28;20056;-88
2021/12/08 09:02:12;;;;;;;7.75;2.97;;;;;;;;;;5093272;28;20060;-88
2021/12/08 09:04:43;;;;;;;5.90;2.10;;;;;;;;;;5060732;28;20048;-90
2021/12/08 09:07:14;;;;;;;6.18;2.58;;;;;;;;;;5093443;28;20064;-88
2021/12/08 09:09:41;;;;;;;11.82;3.08;;;;;;;;;;5094485;28;20439;-88
2021/12/08 09:12:08;;;;;;;11.32;3.40;;;;;;;;;;5060635;28;20058;-87
2021/12/08 09:14:41;;;;;;;5.28;2.40;;;;;;;;;;5058950;28;20139;-89
2021/12/08 09:17:13;;;;;;;13.80;3.05;;;;;;;;;;5060317;28;20067;-90
2021/12/08 09:19:43;;;;;;;5.78;2.28;;;;;;;;;;5060230;28;20051;-91
2021/12/08 09:22:19;;;;;;;4.78;2.17;;;;;;;;;;5060704;28;20412;-91
2021/12/08 09:24:54;;;;;;;4.80;2.38;;;;;;;;;;5093653;28;20052;-91
2021/12/08 09:27:29;;;;;;;9.45;2.40;;;;;;;;;;5059525;28;20052;-91
2021/12/08 09:29:58;;;;;;;9.13;2.90;;;;;;;;;;5060117;28;20055;-89
2021/12/08 09:32:38;;;;;;;8.63;2.65;;;;;;;;;;5060549;28;20105;-89
2021/12/08 09:35:10;;;;;;;6.03;3.25;;;;;;;;;;5094233;28;20048;-89
2021/12/08 09:37:40;;;;;;;8.48;2.40;;;;;;;;;;5061699;28;20051;-90
2021/12/08 09:40:29;;;;;;;9.00;2.83;;;;;;;;;;5097888;28;20060;-90
2021/12/08 09:42:57;;;;;;;6.57;2.63;;;;;;;;;;5098048;28;20044;-91
2021/12/08 09:45:42;;;;;;;8.63;2.80;;;;;;;;;;5063089;28;20047;-90
2021/12/08 09:48:10;;;;;;;4.07;2.42;;;;;;;;;;5097797;28;20110;-87
2021/12/08 09:50:37;;;;;;;6.07;2.05;;;;;;;;;;5064116;28;20036;-87
2021/12/08 09:53:03;;;;;;;3.40;2.45;;;;;;;;;;5097697;28;20507;-91
2021/12/08 09:55:29;;;;;;;8.68;2.67;;;;;;;;;;5098957;28;20070;-87
2021/12/08 09:57:55;;;;;;;10.30;3.30;;;;;;;;;;5097313;28;20497;-90
2021/12/08 10:00:24;;;;;;;6.13;2.60;;;;;;;;;;5096059;28;20056;-91
2021/12/08 10:02:56;;;;;;;6.22;2.58;;;;;;;;;;5096500;28;20059;-91
2021/12/08 10:05:25;;;;;;;6.30;2.47;;;;;;;;;;5097783;28;20048;-90
2021/12/08 10:07:51;;;;;;;6.80;2.80;;;;;;;;;;5063193;28;20052;-89
2021/12/08 10:10:17;;;;;;;6.32;3.33;;;;;;;;;;5096514;28;20394;-91
2021/12/08 10:12:44;;;;;;;5.32;2.53;;;;;;;;;;5098164;28;20100;-92
2021/12/08 10:15:11;;;;;;;5.30;2.60;;;;;;;;;;5064406;28;20051;-89
2021/12/08 10:17:38;;;;;;;6.22;3.53;;;;;;;;;;5098576;28;20048;-92
2021/12/08 10:20:16;;;;;;;12.13;2.78;;;;;;;;;;5097602;28;20044;-91
2021/12/08 10:22:43;;;;;;;4.85;2.40;;;;;;;;;;5063255;28;20062;-91
2021/12/08 10:25:20;;;;;;;9.13;2.75;;;;;;;;;;5096659;28;20055;-91
2021/12/08 10:28:03;;;;;;;10.15;3.15;;;;;;;;;;5096247;28;20044;-91
2021/12/08 10:30:30;;;;;;;6.32;3.25;;;;;;;;;;5063882;28;20052;-90
2021/12/08 10:32:56;;;;;;;6.80;2.58;;;;;;;;;;5095969;28;20052;-91
2021/12/08 10:35:45;;;;;;;11.05;2.97;;;5.60;99.90;;;;;;5096236;28;20043;-91
2021/12/08 10:38:12;;;;;;;13.40;3.50;;;;;;;;;;5061974;28;20059;-91
2021/12/08 10:40:38;;;;;;;9.90;3.08;;;;;;;;;;5062706;28;20117;-90
2021/12/08 10:43:16;;;;;;;6.32;2.97;;;;;;;;;;5061762;28;20060;-89
2021/12/08 10:45:42;;;;;;;3.95;2.38;;;;;;;;;;5061533;28;20047;-90
2021/12/08 10:48:09;;;;;;;4.63;2.13;;;;;;;;;;5060194;28;20503;-90
2021/12/08 10:56:14;;;;;;;5.40;2.40;;;;;;;;;;5094072;28;20087;-86
2021/12/08 10:58:50;;;;;;;8.80;3.40;;;;;;;;;;5058535;28;20075;-88
2021/12/08 11:01:18;;;;;;;4.18;2.28;;;;;;;;;;5093096;28;20060;-86
2021/12/08 11:03:45;;;;;;;6.38;2.22;;;;;;;;;;5094904;28;20105;-86
2021/12/08 11:06:15;;;;;;;8.15;2.80;;;;;;;;;;5062209;28;20373;-87
2021/12/08 11:08:44;;;;;;;7.63;2.95;;;;;;;;;;5061918;28;20400;-88
2021/12/08 11:11:10;;;;;;;18.70;3.25;;;;;;;;;;5061725;28;20052;-89
2021/12/08 11:13:36;;;;;;;4.50;2.35;;;;;;;;;;5061435;28;20055;-88
2021/12/08 11:16:07;;;;;;;4.63;2.40;;;;;;;;;;5094129;28;20043;-88
2021/12/08 11:18:38;;;;;;;9.25;2.38;;;;;;;;;;5060400;28;20088;-90
2021/12/08 11:21:06;;;;;;;5.95;2.30;;;;;;;;;;5060725;28;20051;-90
2021/12/08 11:23:40;;;;;;;6.55;2.08;;;;;;;;;;5061413;28;20139;-88
2021/12/08 11:26:06;;;;;;;;;;;;;;;;;;5094932;28;20461;-87
2021/12/08 11:28:34;;;;;;;9.30;2.50;;;;;;;;;;5074663;28;19920;-87
2021/12/08 11:31:09;;;;;;;4.10;2.63;;;;;;;;;;5057602;28;20048;-87
2021/12/08 11:33:38;;;;;;;7.78;2.28;;;;;;;;;;5057247;28;20049;-88
2021/12/08 11:36:09;;;;;;;8.55;2.42;;;;;;;;;;5057280;28;20064;-88
2021/12/08 11:38:35;;;;;;;7.45;2.47;;;;;;;;;;5057002;28;20167;-89
2021/12/08 11:41:01;;;;;;;8.45;2.55;;;;;;;;;;5056971;28;20067;-89
2021/12/08 11:43:29;;;;;;;3.95;1.60;;;;;;;;;;5060490;28;20451;-89
2021/12/08 11:45:55;;;;;;;8.60;3.10;;;;;;;;;;5094080;28;20052;-87
2021/12/08 11:48:26;;;;;;;8.45;2.33;;;;;;;;;;5060874;28;20134;-87
2021/12/08 11:51:12;;;;;;;3.88;2.38;;;;;;;;;;5095267;28;20115;-86
2021/12/08 11:53:38;;;;;;;8.85;2.28;;;;;;;;;;5096514;28;20489;-87
2021/12/08 11:56:04;;;;;;;4.05;2.20;;;;;;;;;;5061505;28;20052;-87
2021/12/08 11:58:31;;;;;;;7.35;2.33;;;;;;;;;;5094163;28;20127;-87
2021/12/08 12:00:58;;;;;;;3.95;1.90;;;;;;;;;;5093169;28;20052;-87
2021/12/08 12:03:24;;;;;;;6.63;2.63;;;;;;;;;;5093905;28;20062;-87
2021/12/08 12:05:50;;;;;;;4.63;2.28;;;;;;;;;;5060315;28;20489;-87
2021/12/08 12:08:17;;;;;;;10.77;3.20;;;;;;;;;;5093570;28;20052;-86
2021/12/08 12:10:45;;;;;;;3.22;2.38;;;;;;;;;;5059534;28;20496;-87
2021/12/08 12:13:12;;;;;;;6.47;2.33;;;;;;;;;;5059241;28;20525;-87
2021/12/08 12:15:44;;;;;;;4.72;2.50;;;;;;;;;;5059408;28;20059;-87
2021/12/08 12:18:11;;;;;;;2.80;2.20;;;;;;;;;;5093257;28;20056;-85
2021/12/08 12:20:38;;;;;;;7.18;2.67;;;;;;;;;;5093342;28;20059;-86
2021/12/08 12:23:45;;;;;;;7.25;2.17;;;5.80;99.90;;;;;;5060841;28;20560;-86
2021/12/08 12:26:26;;;;;;;4.57;2.75;;;;;;;;;;5075538;28;20387;-86
2021/12/08 12:29:04;;;;;;;4.43;2.92;;;;;;;;;;5090181;28;20427;-86
2021/12/08 12:31:52;;;;;;;7.45;2.53;;;;;;;;;;5059809;28;20048;-85
2021/12/08 12:34:26;;;;;;;14.20;2.25;;;;;;;;;;5060326;28;20454;-86
2021/12/08 12:36:52;;;;;;;7.53;2.53;;;;;;;;;;5059870;28;20507;-87
2021/12/08 12:39:23;;;;;;;5.80;2.45;;;;;;;;;;5059348;28;20044;-89
2021/12/08 12:42:14;;;;;;;4.82;2.10;;;;;;;;;;5059234;28;20515;-87
2021/12/08 12:44:42;;;;;;;15.25;3.17;;;;;;;;;;5092864;28;20056;-87
2021/12/08 12:47:15;;;;;;;13.48;2.90;;;;;;;;;;5059349;28;20044;-88
2021/12/08 12:49:43;;;;;;;6.07;3.00;;;;;;;;;;5093432;28;20060;-87
2021/12/08 12:52:10;;;;;;;5.63;2.47;;;;;;;;;;5059704;28;20684;-87
2021/12/08 12:54:39;;;;;;;2.78;2.40;;;;;;;;;;5093329;28;20054;-87
2021/12/08 12:57:07;;;;;;;17.75;3.22;;;;;;;;;;5059832;28;20051;-86
2021/12/08 12:59:46;;;;;;;3.25;2.40;;;6.00;99.90;;;;;;5092906;28;20048;-87
2021/12/08 13:02:22;;;;;;;3.55;2.45;;;6.10;99.90;;;;;;5075977;28;20052;-88
2021/12/08 13:04:53;;;;;;;6.68;2.97;;;;;;;;;;5059461;28;20552;-89
2021/12/08 13:07:19;;;;;;;5.38;2.92;;;;;;;;;;5059101;28;20412;-89
2021/12/08 13:09:51;;;;;;;6.63;2.85;;;;;;;;;;5092809;28;20051;-88
2021/12/08 13:12:21;;;;;;;7.90;3.55;;;;;;;;;;5061506;28;20504;-88
2021/12/08 13:15:05;;;;;;;10.50;3.47;;;;;;;;;;5063459;28;20048;-87
2021/12/08 13:17:32;;;;;;;5.18;3.45;;;;;;;;;;5063526;28;20143;-87
2021/12/08 13:19:59;;;;;;;8.73;3.30;;;;;;;;;;5063272;28;20044;-85
2021/12/08 13:22:48;;;;;;;11.32;3.53;;;5.70;99.90;;;;;;5063733;28;20493;-86
2021/12/08 13:25:26;;;;;;;14.25;3.15;;;;;;;;;;5063875;28;20137;-86
2021/12/08 13:27:56;;;;;;;14.02;3.70;;;;;;;;;;5062551;28;20083;-86
2021/12/08 13:30:23;;;;;;;6.43;3.63;;;;;;;;;;5063084;28;20052;-85
2021/12/08 13:32:57;;;;;;;6.00;3.17;;;;;;;;;;5063847;28;20044;-86
2021/12/08 13:35:33;;;;;;;6.35;2.95;;;;;;;;;;5096228;28;20052;-85
2021/12/08 13:38:00;;;;;;;13.85;4.05;;;;;;;;;;5096392;28;20062;-86
2021/12/08 13:40:43;;;;;;;9.23;3.80;;;;;;;;;;5095677;28;20084;-85
2021/12/08 13:43:09;;;;;;;10.15;3.67;;;;;;;;;;5063158;28;20056;-85
2021/12/08 13:45:43;;;;;;;8.50;3.65;;;;;;;;;;5064186;28;20071;-85
2021/12/08 13:48:09;;;;;;;10.95;3.38;;;;;;;;;;5097369;28;20060;-85
2021/12/08 13:50:36;;;;;;;9.98;3.30;;;;;;;;;;5080907;28;20047;-85
2021/12/08 13:53:08;;;;;;;6.43;2.97;;;;;;;;;;5096462;28;20051;-85
2021/12/08 13:55:43;;;;;;;7.30;2.88;;;;;;;;;;5063174;28;20083;-85
2021/12/08 13:58:12;;;;;;;9.05;3.35;;;;;;;;;;5096609;28;20135;-85
2021/12/08 14:00:39;;;;;;;8.75;3.05;;;;;;;;;;5063044;28;20044;-84
2021/12/08 14:03:05;;;;;;;8.40;3.53;;;;;;;;;;5062257;28;20531;-85
2021/12/08 14:05:31;;;;;;;10.63;3.10;;;;;;;;;;5095839;28;20507;-85
2021/12/08 14:07:57;;;;;;;4.93;2.75;;;;;;;;;;5096137;28;20048;-85
2021/12/08 14:10:23;;;;;;;4.28;2.60;;;;;;;;;;5062685;28;20048;-85
2021/12/08 14:12:51;;;;;;;5.68;3.30;;;;;;;;;;5062511;28;20055;-85
2021/12/08 14:15:22;;;;;;;5.90;3.15;;;;;;;;;;5096072;28;20052;-86
2021/12/08 14:17:49;;;;;;;5.45;2.88;;;;;;;;;;5062330;28;20420;-85
2021/12/08 14:20:46;;;;;;;7.20;2.95;;;6.00;99.90;;;;;;5095671;28;20040;-85
2021/12/08 14:23:12;;;;;;;5.97;2.78;;;;;;;;;;4995985;28;20081;-85
2021/12/08 14:25:43;;;;;;;6.50;3.67;;;;;;;;;;4978822;28;20086;-85
2021/12/08 14:28:44;;;;;;;4.20;2.55;;;6.10;99.90;;;;;;4978206;28;20085;-85
2021/12/08 14:31:14;;;;;;;5.43;2.95;;;;;;;;;;4943157;28;20057;-85
2021/12/08 14:33:49;;;;;;;5.82;3.03;;;;;;;;;;4959406;28;20081;-85
2021/12/08 14:36:15;;;;;;;4.97;3.10;;;;;;;;;;4942903;28;20502;-85
2021/12/08 14:38:51;;;;;;;3.80;2.70;;;;;;;;;;4942520;28;20057;-85
2021/12/08 14:41:32;;;;;;;9.60;4.00;;;;;;;;;;4942944;28;20134;-86
2021/12/08 14:44:07;;;;;;;6.93;3.00;;;5.60;99.90;;;;;;4942540;28;20046;-85
2021/12/08 14:46:33;;;;;;;8.35;2.90;;;;;;;;;;4942912;28;20061;-85
2021/12/08 14:49:01;;;;;;;5.20;2.60;;;;;;;;;;4942696;28;20091;-85
2021/12/08 14:51:28;;;;;;;4.22;2.83;;;;;;;;;;4959165;28;20180;-85
2021/12/08 14:53:54;;;;;;;5.65;3.00;;;;;;;;;;4959100;28;20057;-85
2021/12/08 14:56:22;;;;;;;11.73;3.47;;;;;;;;;;4942822;28;20129;-85
2021/12/08 14:58:55;;;;;;;10.05;4.30;;;;;;;;;;4954422;28;20050;-85
2021/12/08 15:01:21;;;;;;;12.05;3.13;;;;;;;;;;5017057;28;20046;-86
2021/12/08 15:03:47;;;;;;;6.50;3.15;;;;;;;;;;5017011;28;20061;-86
2021/12/08 15:06:17;;;;;;;10.75;2.80;;;;;;;;;;5072397;28;20067;-85
2021/12/08 15:08:43;;;;;;;5.13;2.80;;;;;;;;;;5057972;28;20140;-86
2021/12/08 15:11:09;;;;;;;3.40;2.80;;;;;;;;;;5092319;28;20602;-85
2021/12/08 15:13:35;;;;;;;3.13;2.42;;;;;;;;;;5091730;28;20091;-85
2021/12/08 15:16:03;;;;;;;5.70;3.42;;;;;;;;;;5057546;28;20536;-85
2021/12/08 15:18:30;;;;;;;5.95;3.13;;;;;;;;;;5057733;28;20049;-85
2021/12/08 15:21:02;;;;;;;12.13;3.97;;;;;;;;;;5091268;28;20037;-85
2021/12/08 15:23:49;;;;;;;9.15;3.75;;;;;;;;;;5058144;28;20044;-86
2021/12/08 15:26:18;;;;;;;14.77;3.35;;;;;;;;;;5058091;28;20071;-86
2021/12/08 15:28:46;;;;;;;5.72;3.08;;;;;;;;;;5090825;28;20048;-86
2021/12/08 15:31:12;;;;;;;9.60;3.35;;;;;;;;;;5090543;28;20131;-86
2021/12/08 15:33:39;;;;;;;7.72;3.33;;;;;;;;;;5090548;28;20132;-86
2021/12/08 15:36:07;;;;;;;4.75;3.28;;;;;;;;;;5056553;28;20102;-86
2021/12/08 15:38:33;;;;;;;6.10;3.10;;;;;;;;;;5057087;28;20061;-87
2021/12/08 15:40:59;;;;;;;5.97;3.40;;;;;;;;;;5056909;28;20048;-87
2021/12/08 15:43:25;;;;;;;3.25;2.40;;;;;;;;;;5057831;28;20053;-87